Time;durP1;ratioP1;P1;durP2;ratioP2;P2;SDS_P1;SDS_P2;PMS_P1;PMS_P2;Temp;Humidity;BMP_temperature;BMP_pressure;BME280_temperature;BME280_humidity;BME280_pressure;Samples;Min_cycle;Max_cycle;Signal;HPM_P1;HPM_P2
2022/01/24 00:01:49;;;;;;;7.32;3.10;;;;;;;4.70;100.00;103270.53;6248754;28;20481;-77
2022/01/24 00:04:51;;;;;;;4.65;2.67;;;;;;;4.73;100.00;103268.81;6248658;28;20119;-77
2022/01/24 00:07:53;;;;;;;6.15;3.10;;;;;;;4.76;100.00;103276.66;6245341;28;20058;-77
2022/01/24 00:10:54;;;;;;;13.95;3.58;;;;;;;4.77;100.00;103270.63;6248424;28;20511;-77
2022/01/24 00:17:17;;;;;;;4.18;2.65;;;;;;;4.77;100.00;103267.13;6235240;28;20057;-77
2022/01/24 00:27:12;;;;;;;7.13;3.15;;;;;;;4.66;100.00;103264.38;6173298;28;20082;-77
2022/01/24 00:30:14;;;;;;;4.18;2.47;;;;;;;4.70;100.00;103270.53;6223807;28;20064;-77
2022/01/24 00:33:18;;;;;;;4.80;2.05;;;;;;;4.71;100.00;103280.94;6240425;28;20049;-76
2022/01/24 00:36:21;;;;;;;5.63;2.42;;;;;;;4.69;100.00;103267.03;6248777;28;20050;-76
2022/01/24 00:39:23;;;;;;;10.77;3.47;;;;;;;4.64;100.00;103273.94;6247777;28;20053;-76
2022/01/24 00:42:31;;;;;;;6.65;3.15;;;;;;;4.66;100.00;103268.72;6245984;28;20056;-76
2022/01/24 00:45:39;;;;;;;6.93;3.08;;;;;;;4.68;100.00;103274.81;6252195;28;20053;-76
2022/01/24 00:49:18;;;;;;;7.90;3.58;;;;;;;4.69;100.00;103269.66;6261329;28;20060;-77
2022/01/24 00:55:33;;;;;;;7.38;3.50;;;;;;;4.70;100.00;103266.19;6240684;28;20532;-77
2022/01/24 00:58:35;;;;;;;5.82;2.85;;;;;;;4.72;100.00;103263.59;6247717;28;20056;-75
2022/01/24 01:01:36;;;;;;;5.57;2.50;;;;;;;4.69;100.00;103261.84;6247083;28;20162;-77
2022/01/24 01:04:50;;;;;;;6.82;3.28;;;;;;;4.69;100.00;103254.03;6247333;28;20052;-76
2022/01/24 01:07:54;;;;;;;4.55;2.63;;;;;;;4.62;100.00;103256.53;6241235;28;20042;-76
2022/01/24 01:24:10;;;;;;;4.88;2.53;;;;;;;4.69;100.00;103253.16;6244347;28;20049;-76
2022/01/24 01:27:16;;;;;;;5.78;2.78;;;;;;;4.69;100.00;103259.22;6246840;28;20052;-76
2022/01/24 01:30:21;;;;;;;10.30;3.45;;;;;;;4.67;100.00;103260.06;6246589;28;20042;-76
2022/01/24 01:33:32;;;;;;;3.85;2.30;;;;;;;4.65;100.00;103256.56;6247024;28;20072;-76
2022/01/24 01:53:47;;;;;;;4.07;2.42;;;;;;;4.60;100.00;103248.69;6246395;28;20424;-76
2022/01/24 01:56:50;;;;;;;8.10;3.63;;;;;;;4.58;100.00;103248.66;6246208;28;20064;-76
2022/01/24 01:59:51;;;;;;;7.72;3.47;;;;;;;4.62;100.00;103246.09;6246402;28;20502;-76
2022/01/24 02:02:53;;;;;;;5.45;2.72;;;;;;;4.62;100.00;103249.59;6246638;28;20060;-76
2022/01/24 02:05:54;;;;;;;6.55;3.70;;;;;;;4.65;100.00;103241.81;6246593;28;20050;-76
2022/01/24 02:09:00;;;;;;;5.40;2.50;;;;;;;4.61;100.00;103245.25;6246475;28;20412;-76
2022/01/24 02:12:03;;;;;;;4.57;2.10;;;;;;;4.64;100.00;103247.00;6246153;28;20085;-76
2022/01/24 02:15:06;;;;;;;8.82;3.00;;;;;;;4.62;100.00;103251.31;6246801;28;20049;-76
2022/01/24 02:18:14;;;;;;;6.25;2.97;;;;;;;4.64;100.00;103244.41;6246499;28;20408;-77
2022/01/24 02:21:29;;;;;;;6.57;3.28;;;;;;;4.67;100.00;103244.44;6246403;28;20188;-76
2022/01/24 02:24:40;;;;;;;6.47;3.20;;;;;;;4.64;100.00;103247.88;6245895;28;20393;-76
2022/01/24 02:27:46;;;;;;;5.75;2.42;;;;;;;4.67;100.00;103244.44;6232797;28;20060;-76
2022/01/24 02:31:03;;;;;;;4.95;2.85;;;;;;;4.66;100.00;103240.94;6245940;28;20145;-76
2022/01/24 02:34:06;;;;;;;4.70;2.17;;;;;;;4.65;100.00;103246.16;6246278;28;20064;-76
2022/01/24 02:37:11;;;;;;;6.05;3.22;;;;;;;4.62;100.00;103240.91;6246294;28;20050;-76
2022/01/24 02:40:15;;;;;;;4.15;2.63;;;;;;;4.60;100.00;103240.88;6246037;28;20046;-76
2022/01/24 02:50:02;;;;;;;5.07;2.55;;;;;;;4.60;100.00;103242.63;6247622;28;20053;-76
2022/01/24 02:53:05;;;;;;;5.55;3.05;;;;;;;4.57;100.00;103238.25;6250511;28;20515;-76
2022/01/24 02:56:07;;;;;;;4.05;2.67;;;;;;;4.58;100.00;103243.47;6249837;28;20432;-76
2022/01/24 02:59:08;;;;;;;4.53;2.08;;;;;;;4.60;100.00;103238.28;6250629;28;20056;-76
2022/01/24 03:02:09;;;;;;;3.67;2.03;;;;;;;4.60;100.00;103235.69;6249893;28;20045;-76
2022/01/24 03:05:11;;;;;;;6.72;2.70;;;;;;;4.64;100.00;103242.69;6250524;28;20049;-76
2022/01/24 03:08:14;;;;;;;6.00;2.42;;;;;;;4.58;100.00;103235.63;6245579;28;20041;-76
2022/01/24 03:11:16;;;;;;;6.25;2.25;;;;;;;4.61;100.00;103242.63;6245963;28;20081;-76
2022/01/24 03:14:19;;;;;;;7.28;2.53;;;;;;;4.65;100.00;103241.81;6249392;28;20057;-76
2022/01/24 03:17:21;;;;;;;4.53;2.65;;;;;;;4.65;100.00;103234.00;6250381;28;20053;-76
2022/01/24 03:20:22;;;;;;;4.85;2.83;;;;;;;4.60;100.00;103232.22;6249625;28;20049;-76
2022/01/24 03:23:26;;;;;;;5.03;2.85;;;;;;;4.60;100.00;103234.81;6249687;28;20053;-76
2022/01/24 03:26:27;;;;;;;5.40;2.75;;;;;;;4.63;100.00;103234.81;6249296;28;20049;-76
2022/01/24 03:29:29;;;;;;;3.13;2.05;;;;;;;4.65;100.00;103235.72;6249467;28;20057;-77
2022/01/24 03:32:30;;;;;;;4.97;1.77;;;;;;;4.63;100.00;103234.81;6249389;28;20045;-76
2022/01/24 03:35:32;;;;;;;5.38;2.63;;;;;;;4.64;100.00;103228.78;6249175;28;20100;-77
2022/01/24 03:38:34;;;;;;;5.68;2.33;;;;;;;4.67;100.00;103227.06;6249879;28;20050;-76
2022/01/24 03:41:36;;;;;;;3.65;2.15;;;;;;;4.67;100.00;103220.97;6246944;28;20072;-76
2022/01/24 03:44:38;;;;;;;6.75;2.55;;;;;;;4.66;100.00;103230.53;6249462;28;20053;-76
2022/01/24 03:47:56;;;;;;;5.80;2.65;;;;;;;4.62;100.00;103231.34;6249229;28;20045;-76
2022/01/24 03:50:57;;;;;;;4.18;2.78;;;;;;;4.61;100.00;103224.41;6249173;28;20045;-76
2022/01/24 03:54:01;;;;;;;3.95;2.22;;;;;;;4.55;100.00;103225.22;6248675;28;20432;-76
2022/01/24 03:57:04;;;;;;;5.25;2.95;;;;;;;4.55;100.00;103219.13;6249248;28;20057;-76
2022/01/24 04:00:08;;;;;;;6.18;2.45;;;;;;;4.56;100.00;103221.75;6248309;28;20061;-76
2022/01/24 04:03:10;;;;;;;2.90;2.15;;;;;;;4.52;100.00;103225.16;6248580;28;20420;-76
2022/01/24 04:06:11;;;;;;;4.05;2.15;;;;;;;4.51;100.00;103220.81;6248959;28;20512;-76
2022/01/24 04:09:14;;;;;;;5.63;2.63;;;;;;;4.55;100.00;103221.75;6248294;28;20124;-76
2022/01/24 04:12:16;;;;;;;4.30;2.28;;;;;;;4.58;100.00;103220.03;6248547;28;20492;-76
2022/01/24 04:15:43;;;;;;;5.35;2.20;;;;;;;4.60;100.00;103227.88;6248091;28;20056;-76
2022/01/24 04:18:52;;;;;;;4.38;2.00;;;;;;;4.57;100.00;103220.00;6246438;28;20182;-76
2022/01/24 04:21:54;;;;;;;3.60;2.00;;;;;;;4.60;100.00;103233.06;6244636;28;20042;-76
2022/01/24 04:25:00;;;;;;;4.68;1.92;;;;;;;4.61;100.00;103226.13;6246726;28;20049;-76
2022/01/24 04:28:02;;;;;;;2.78;1.92;;;;;;;4.61;100.00;103236.56;6246602;28;20049;-76
2022/01/24 04:31:03;;;;;;;3.78;1.92;;;;;;;4.58;100.00;103233.03;6246302;28;20477;-76
2022/01/24 04:34:05;;;;;;;4.15;2.20;;;;;;;4.60;100.00;103227.00;6246383;28;20041;-77
2022/01/24 04:37:06;;;;;;;4.05;2.45;;;;;;;4.59;100.00;103239.16;6246500;28;20064;-76
2022/01/24 04:40:10;;;;;;;5.85;2.72;;;;;;;4.58;100.00;103232.16;6246130;28;20049;-76
2022/01/24 04:43:28;;;;;;;2.88;1.83;;;;;;;4.56;100.00;103233.91;6244262;28;20045;-77
2022/01/24 04:46:46;;;;;;;2.60;1.60;;;;;;;4.57;100.00;103225.22;6243860;28;20052;-77
2022/01/24 04:53:13;;;;;;;5.68;2.92;;;;;;;4.51;100.00;103223.44;6246106;28;20128;-76
2022/01/24 04:56:16;;;;;;;5.97;2.80;;;;;;;4.50;100.00;103215.59;6243322;28;20080;-76
2022/01/24 04:59:17;;;;;;;3.42;2.17;;;;;;;4.51;100.00;103219.94;6245836;28;20060;-76
2022/01/24 05:02:20;;;;;;;3.90;2.28;;;;;;;4.50;100.00;103219.09;6245584;28;20049;-76
2022/01/24 05:05:24;;;;;;;4.53;2.42;;;;;;;4.53;100.00;103213.88;6245831;28;20051;-77
2022/01/24 05:08:25;;;;;;;4.72;2.38;;;;;;;4.55;100.00;103217.41;6244154;28;20069;-76
2022/01/24 05:11:37;;;;;;;3.90;2.13;;;;;;;4.56;100.00;103221.75;6245008;28;20497;-77
2022/01/24 05:21:35;;;;;;;7.20;2.67;;;;;;;4.53;100.00;103220.84;6245155;28;20057;-77
2022/01/24 05:24:39;;;;;;;6.45;2.42;;;;;;;4.56;100.00;103226.09;6243277;28;20045;-76
2022/01/24 05:27:41;;;;;;;4.03;2.55;;;;;;;4.56;100.00;103220.88;6245274;28;20056;-76
2022/01/24 05:30:43;;;;;;;5.85;2.78;;;;;;;4.57;100.00;103215.69;6245172;28;20049;-76
2022/01/24 05:33:45;;;;;;;5.43;2.78;;;;;;;4.50;100.00;103213.00;6245660;28;20068;-76
2022/01/24 05:36:46;;;;;;;6.53;2.92;;;;;;;4.48;100.00;103207.75;6247059;28;20504;-76
2022/01/24 05:39:48;;;;;;;5.18;2.90;;;;;;;4.54;100.00;103204.34;6246755;28;20511;-76
2022/01/24 05:42:50;;;;;;;7.93;3.28;;;;;;;4.52;100.00;103211.28;6246723;28;20048;-77
2022/01/24 05:45:52;;;;;;;4.57;2.53;;;;;;;4.53;100.00;103210.41;6246711;28;20389;-76
2022/01/24 05:48:54;;;;;;;4.88;3.25;;;;;;;4.53;100.00;103213.88;6246731;28;20049;-76
2022/01/24 05:51:56;;;;;;;5.03;2.33;;;;;;;4.55;100.00;103203.50;6246451;28;20072;-77
2022/01/24 05:54:57;;;;;;;8.13;3.08;;;;;;;4.52;100.00;103209.53;6246278;28;20064;-76
2022/01/24 05:58:00;;;;;;;5.82;2.60;;;;;;;4.53;100.00;103205.22;6246896;28;20053;-76
2022/01/24 06:01:01;;;;;;;4.82;2.60;;;;;;;4.54;100.00;103206.94;6246184;28;20386;-76
2022/01/24 06:04:02;;;;;;;6.82;2.72;;;;;;;4.52;100.00;103206.94;6246789;28;20056;-76
2022/01/24 06:07:04;;;;;;;4.93;2.65;;;;;;;4.52;100.00;103206.94;6246695;28;20053;-77
2022/01/24 06:10:07;;;;;;;8.35;3.42;;;;;;;4.53;100.00;103208.69;6246238;28;20050;-76
2022/01/24 06:13:10;;;;;;;6.00;2.83;;;;;;;4.51;100.00;103200.00;6246681;28;20060;-77
2022/01/24 06:16:11;;;;;;;3.92;2.30;;;;;;;4.51;100.00;103200.00;6246667;28;20053;-77
2022/01/24 06:19:13;;;;;;;2.92;2.28;;;;;;;4.54;100.00;103193.94;6246611;28;20056;-76
2022/01/24 06:22:14;;;;;;;4.00;2.63;;;;;;;4.53;100.00;103197.41;6246057;28;20104;-75
2022/01/24 06:25:21;;;;;;;3.25;2.28;;;;;;;4.54;100.00;103194.84;6249792;28;20053;-75
2022/01/24 06:28:23;;;;;;;6.57;2.88;;;;;;;4.54;100.00;103202.66;6250906;28;20049;-76
2022/01/24 06:31:25;;;;;;;5.30;3.03;;;;;;;4.54;100.00;103210.44;6251221;28;20046;-76
2022/01/24 06:34:26;;;;;;;5.78;3.05;;;;;;;4.52;100.00;103204.34;6250902;28;20054;-76
2022/01/24 06:37:27;;;;;;;5.43;2.63;;;;;;;4.55;100.00;103198.31;6251257;28;20061;-76
2022/01/24 06:40:29;;;;;;;6.32;3.25;;;;;;;4.56;100.00;103208.72;6250642;28;20045;-76
2022/01/24 06:43:31;;;;;;;5.22;3.10;;;;;;;4.56;100.00;103206.13;6249581;28;20045;-76
2022/01/24 06:46:33;;;;;;;4.03;2.17;;;;;;;4.55;100.00;103204.38;6250513;28;20049;-76
2022/01/24 06:49:36;;;;;;;6.47;2.80;;;;;;;4.57;100.00;103207.88;6250348;28;20057;-76
2022/01/24 06:52:37;;;;;;;5.03;2.40;;;;;;;4.55;100.00;103209.59;6250118;28;20506;-76
2022/01/24 06:55:39;;;;;;;5.93;2.97;;;;;;;4.54;100.00;103212.16;6250207;28;20049;-76
2022/01/24 06:58:42;;;;;;;7.10;2.90;;;;;;;4.55;100.00;103212.19;6250608;28;20100;-76
2022/01/24 07:01:44;;;;;;;4.75;3.25;;;;;;;4.54;100.00;103217.38;6249415;28;20444;-76
2022/01/24 07:04:45;;;;;;;7.65;3.38;;;;;;;4.47;100.00;103224.25;6250403;28;20056;-76
2022/01/24 07:07:46;;;;;;;7.18;3.75;;;;;;;4.47;100.00;103213.81;6246129;28;20052;-76
2022/01/24 07:10:48;;;;;;;6.00;3.17;;;;;;;4.51;100.00;103217.34;6249244;28;20611;-76
2022/01/24 07:13:53;;;;;;;6.90;2.80;;;;;;;4.51;100.00;103220.81;6246085;28;20049;-76
2022/01/24 07:17:09;;;;;;;6.57;2.83;;;;;;;4.53;100.00;103216.50;6250280;28;20049;-76
2022/01/24 07:20:11;;;;;;;5.93;3.15;;;;;;;4.54;100.00;103223.47;6249658;28;20052;-76
2022/01/24 07:23:12;;;;;;;5.45;3.03;;;;;;;4.52;100.00;103222.56;6249889;28;20053;-76
2022/01/24 07:26:13;;;;;;;5.85;3.53;;;;;;;4.52;100.00;103226.91;6249507;28;20053;-76
2022/01/24 07:29:16;;;;;;;4.47;3.00;;;;;;;4.54;100.00;103233.88;6249391;28;20416;-76
2022/01/24 07:32:17;;;;;;;6.20;3.58;;;;;;;4.58;100.00;103238.25;6249470;28;20072;-76
2022/01/24 07:35:19;;;;;;;5.28;2.80;;;;;;;4.57;100.00;103233.91;6248301;28;20049;-76
2022/01/24 07:38:20;;;;;;;9.20;3.25;;;;;;;4.56;100.00;103234.75;6249636;28;20056;-76
2022/01/24 07:41:24;;;;;;;6.00;2.85;;;;;;;4.57;100.00;103233.91;6249084;28;20057;-76
2022/01/24 07:44:27;;;;;;;8.38;2.67;;;;;;;4.56;100.00;103236.50;6249247;28;20111;-76
2022/01/24 07:47:28;;;;;;;4.75;2.70;;;;;;;4.56;100.00;103239.97;6249336;28;20060;-76
2022/01/24 07:50:31;;;;;;;7.00;3.40;;;;;;;4.57;100.00;103233.91;6248962;28;20057;-76
2022/01/24 07:53:32;;;;;;;5.65;2.50;;;;;;;4.60;100.00;103225.25;6248709;28;20041;-76
2022/01/24 07:56:34;;;;;;;6.00;2.92;;;;;;;4.60;100.00;103230.47;6249237;28;20046;-77
2022/01/24 07:59:37;;;;;;;8.90;3.60;;;;;;;4.61;100.00;103231.34;6248952;28;20131;-76
2022/01/24 08:02:39;;;;;;;7.63;3.47;;;;;;;4.58;100.00;103230.44;6247705;28;20100;-75
2022/01/24 08:05:40;;;;;;;9.02;3.92;;;;;;;4.56;100.00;103236.50;6246040;28;20049;-76
2022/01/24 08:08:42;;;;;;;6.53;3.42;;;;;;;4.60;100.00;103229.59;6245319;28;20049;-75
2022/01/24 08:11:43;;;;;;;5.47;2.63;;;;;;;4.61;100.00;103224.41;6230242;28;20042;-74
2022/01/24 08:14:46;;;;;;;7.30;3.65;;;;;;;4.64;100.00;103229.66;6245975;28;20045;-76
2022/01/24 08:17:48;;;;;;;6.82;3.63;;;;;;;4.65;100.00;103228.78;6248252;28;20045;-76
2022/01/24 08:20:49;;;;;;;5.40;3.05;;;;;;;4.66;100.00;103230.53;6247853;28;20515;-76
2022/01/24 08:23:51;;;;;;;5.07;3.30;;;;;;;4.68;100.00;103231.44;6247910;28;20041;-75
2022/01/24 08:26:53;;;;;;;4.80;3.03;;;;;;;4.69;100.00;103227.09;6248222;28;20049;-76
2022/01/24 08:29:56;;;;;;;7.85;3.63;;;;;;;4.70;100.00;103232.31;6248027;28;20053;-76
2022/01/24 08:32:57;;;;;;;7.40;3.83;;;;;;;4.73;100.00;103234.09;6248469;28;20513;-75
2022/01/24 08:35:59;;;;;;;6.32;2.85;;;;;;;4.72;100.00;103235.81;6264334;28;20057;-75
2022/01/24 08:39:06;;;;;;;7.63;2.95;;;;;;;4.74;100.00;103233.22;6257329;28;20050;-76
2022/01/24 08:42:12;;;;;;;8.85;3.17;;;;;;;4.77;100.00;103231.53;6262269;28;20077;-75
2022/01/24 08:48:34;;;;;;;7.25;3.83;;;;;;;4.71;100.00;103236.66;6247007;28;20057;-76
2022/01/24 08:51:35;;;;;;;6.97;3.50;;;;;;;4.68;100.00;103234.03;6232567;28;20413;-76
2022/01/24 08:54:37;;;;;;;6.22;2.80;;;;;;;4.67;100.00;103229.66;6238659;28;20053;-75
2022/01/24 08:57:40;;;;;;;11.48;4.28;;;;;;;4.68;100.00;103231.44;6247603;28;20075;-76
2022/01/24 09:00:44;;;;;;;9.10;4.25;;;;;;;4.71;100.00;103233.19;6247429;28;20103;-70
2022/01/24 09:03:46;;;;;;;11.23;4.90;;;;;;;4.70;100.00;103226.25;6247488;28;20056;-75
2022/01/24 09:06:47;;;;;;;10.65;4.55;;;;;;;4.73;100.00;103219.34;6246209;28;20049;-76
2022/01/24 09:09:48;;;;;;;11.40;3.97;;;;;;;4.74;100.00;103221.09;6265430;28;20048;-76
2022/01/24 09:12:50;;;;;;;12.43;5.15;;;;;;;4.74;100.00;103226.28;6250970;28;20049;-75
2022/01/24 09:15:52;;;;;;;7.88;4.03;;;;;;;4.77;100.00;103225.47;6247305;28;20045;-75
2022/01/24 09:18:54;;;;;;;8.27;3.40;;;;;;;4.79;100.00;103227.22;6247835;28;20496;-76
2022/01/24 09:21:55;;;;;;;9.52;4.32;;;;;;;4.78;100.00;103219.38;6262026;28;20045;-76
2022/01/24 09:24:57;;;;;;;10.57;4.07;;;;;;;4.76;100.00;103215.88;6247949;28;20058;-77
2022/01/24 09:27:58;;;;;;;6.35;3.15;;;;;;;4.79;100.00;103219.38;6245198;28;20052;-75
2022/01/24 09:31:01;;;;;;;6.10;3.58;;;;;;;4.81;100.00;103212.47;6247515;28;20048;-77
2022/01/24 09:34:02;;;;;;;7.15;3.33;;;;;;;4.86;100.00;103222.03;6246078;28;20519;-75
2022/01/24 09:37:04;;;;;;;7.93;3.83;;;;;;;4.85;100.00;103213.38;6246640;28;20505;-76
2022/01/24 09:40:07;;;;;;;9.38;3.88;;;;;;;4.87;100.00;103211.66;6245730;28;20045;-76
2022/01/24 09:43:09;;;;;;;6.75;4.28;;;;;;;4.89;100.00;103214.28;6246210;28;20038;-76
2022/01/24 09:46:12;;;;;;;6.63;3.85;;;;;;;4.90;100.00;103216.88;6246190;28;20049;-76
2022/01/24 09:49:14;;;;;;;6.55;3.45;;;;;;;4.90;100.00;103223.84;6246330;28;20068;-75
2022/01/24 09:52:16;;;;;;;7.32;3.42;;;;;;;4.93;100.00;103214.31;6245885;28;20057;-76
2022/01/24 09:55:21;;;;;;;6.40;3.70;;;;;;;4.94;100.00;103217.78;6246053;28;20056;-77
2022/01/24 09:58:22;;;;;;;5.78;2.97;;;;;;;4.94;100.00;103223.00;6247017;28;20045;-77
2022/01/24 10:01:25;;;;;;;9.65;3.10;;;;;;;5.02;100.00;103224.84;6248466;28;20070;-76
2022/01/24 10:04:28;;;;;;;6.32;3.53;;;;;;;5.01;100.00;103217.00;6251269;28;20046;-76
2022/01/24 10:07:29;;;;;;;5.53;2.60;;;;;;;4.98;100.00;103224.78;6249497;28;20053;-76
2022/01/24 10:10:34;;;;;;;7.93;3.38;;;;;;;4.98;100.00;103220.44;6251424;28;20683;-76
2022/01/24 10:17:13;;;;;;;5.13;2.70;;;;;;;5.02;100.00;103213.53;6251567;28;20049;-77
2022/01/24 10:20:24;;;;;;;5.03;2.97;;;;;;;5.04;100.00;103215.31;6250982;28;20061;-76
2022/01/24 10:23:27;;;;;;;5.35;2.70;;;;;;;5.07;100.00;103217.06;6255550;28;20416;-77
2022/01/24 10:26:28;;;;;;;10.45;2.90;;;;;;;5.08;100.00;103219.66;6250022;28;20046;-77
2022/01/24 10:29:29;;;;;;;5.00;2.78;;;;;;;5.07;100.00;103212.72;6253382;28;20053;-75
2022/01/24 10:32:40;;;;;;;5.13;3.00;;;;;;;5.09;100.00;103221.44;6256200;28;20061;-75
2022/01/24 10:35:45;;;;;;;6.55;2.88;;;;;;;5.13;100.00;103224.06;6250418;28;20056;-76
2022/01/24 10:38:55;;;;;;;5.80;2.90;;;;;;;5.13;100.00;103216.22;6261942;28;20489;-76
2022/01/24 10:42:30;;;;;;;;;;;;;;;5.09;100.00;103223.19;6272492;28;20095;-76
2022/01/24 10:45:31;;;;;;;7.10;3.10;;;;;;;5.11;100.00;103213.63;6246749;28;20302;-76
2022/01/24 10:48:39;;;;;;;5.68;3.15;;;;;;;5.12;100.00;103211.88;6256325;28;20132;-76
2022/01/24 10:51:44;;;;;;;4.28;2.70;;;;;;;5.09;100.00;103215.34;6250019;28;20137;-77
2022/01/24 10:54:46;;;;;;;6.25;3.63;;;;;;;5.09;100.00;103221.44;6246860;28;20045;-75
2022/01/24 10:57:50;;;;;;;4.65;2.78;;;;;;;5.04;100.00;103222.22;6249137;28;20044;-77
2022/01/24 11:00:53;;;;;;;8.40;4.10;;;;;;;5.03;100.00;103223.97;6259580;28;20504;-78
2022/01/24 11:04:01;;;;;;;7.07;4.22;;;;;;;5.06;100.00;103226.63;6270325;28;20084;-76
2022/01/24 11:07:04;;;;;;;5.45;3.45;;;;;;;5.06;100.00;103218.78;6274146;28;20056;-76
2022/01/24 11:10:05;;;;;;;6.68;3.90;;;;;;;5.07;100.00;103217.94;6244001;28;20520;-78
2022/01/24 11:13:07;;;;;;;6.65;3.80;;;;;;;5.09;100.00;103207.53;6249298;28;20042;-76
2022/01/24 11:16:08;;;;;;;8.82;4.20;;;;;;;5.08;100.00;103218.78;6249937;28;20048;-77
2022/01/24 11:19:17;;;;;;;6.30;3.28;;;;;;;5.09;100.00;103208.41;6249658;28;20420;-77
2022/01/24 11:22:21;;;;;;;9.15;3.72;;;;;;;5.13;100.00;103205.81;6249931;28;20412;-78
2022/01/24 11:25:22;;;;;;;7.97;3.83;;;;;;;5.12;100.00;103204.94;6249868;28;20046;-77
2022/01/24 11:28:24;;;;;;;7.85;4.35;;;;;;;5.13;100.00;103205.81;6249879;28;20701;-77
2022/01/24 11:31:29;;;;;;;5.85;3.50;;;;;;;5.15;100.00;103194.56;6249639;28;20050;-78
2022/01/24 11:34:36;;;;;;;6.45;3.22;;;;;;;5.16;100.00;103191.06;6249559;28;20045;-77
2022/01/24 11:37:40;;;;;;;16.30;8.32;;;;;;;5.16;100.00;103193.69;6249900;28;20049;-78
2022/01/24 11:40:47;;;;;;;11.98;5.70;;;;;;;5.19;100.00;103200.66;6249743;28;20049;-77
2022/01/24 11:43:51;;;;;;;6.97;3.90;;;;;;;5.18;100.00;103185.88;6243892;28;20038;-78
2022/01/24 11:46:55;;;;;;;7.22;3.95;;;;;;;5.20;100.00;103205.88;6249619;28;20041;-76
2022/01/24 11:49:59;;;;;;;6.47;3.53;;;;;;;5.22;100.00;103198.97;6249467;28;20051;-78
2022/01/24 11:53:00;;;;;;;6.47;3.95;;;;;;;5.22;100.00;103195.47;6248868;28;20436;-77
2022/01/24 11:56:19;;;;;;;10.35;4.93;;;;;;;5.18;100.00;103194.59;6249451;28;20052;-77
2022/01/24 11:59:22;;;;;;;7.13;3.47;;;;;;;5.19;100.00;103195.47;6249308;28;20567;-78
2022/01/24 12:02:25;;;;;;;9.18;4.28;;;;;;;5.20;100.00;103192.84;6249055;28;20076;-76
2022/01/24 12:05:29;;;;;;;8.98;4.50;;;;;;;5.18;100.00;103183.25;6249186;28;20489;-77
2022/01/24 12:08:34;;;;;;;7.72;3.50;;;;;;;5.16;100.00;103185.00;6249397;28;20115;-76
2022/01/24 12:11:37;;;;;;;6.90;4.10;;;;;;;5.13;100.00;103180.63;6249096;28;20056;-76
2022/01/24 12:14:39;;;;;;;6.47;3.35;;;;;;;5.13;100.00;103180.63;6249194;28;20045;-78
2022/01/24 12:17:46;;;;;;;6.32;3.33;;;;;;;5.08;100.00;103182.31;6248622;28;20402;-76
2022/01/24 12:20:50;;;;;;;8.15;3.15;;;;;;;5.05;100.00;103174.50;6248379;28;20054;-78
2022/01/24 12:23:54;;;;;;;4.93;2.90;;;;;;;5.05;100.00;103164.06;6248587;28;20044;-77
2022/01/24 12:27:05;;;;;;;5.63;3.10;;;;;;;5.04;100.00;103157.09;6248929;28;20049;-78
2022/01/24 12:30:07;;;;;;;7.90;3.03;;;;;;;5.03;100.00;103161.41;6248796;28;20045;-77
2022/01/24 12:33:08;;;;;;;4.88;3.03;;;;;;;5.02;100.00;103161.41;6248363;28;20493;-78
2022/01/24 12:36:15;;;;;;;10.45;3.42;;;;;;;5.03;100.00;103165.75;6227015;28;20050;-76
2022/01/24 12:39:22;;;;;;;7.25;3.03;;;;;;;4.98;100.00;103157.91;6223680;28;20413;-77
2022/01/24 12:42:37;;;;;;;5.00;2.72;;;;;;;4.97;100.00;103152.69;6223618;28;20060;-77
2022/01/24 12:49:09;;;;;;;4.07;2.72;;;;;;;4.98;100.00;103160.50;6149682;28;20048;-77
2022/01/24 12:52:13;;;;;;;4.05;2.50;;;;;;;4.98;100.00;103151.81;6247568;28;20172;-78
2022/01/24 12:55:14;;;;;;;7.38;3.17;;;;;;;4.96;100.00;103150.97;6247277;28;20393;-76
2022/01/24 12:58:15;;;;;;;5.68;2.97;;;;;;;4.93;100.00;103154.38;6248019;28;20496;-77
2022/01/24 13:01:20;;;;;;;5.15;2.65;;;;;;;4.94;100.00;103147.44;6247769;28;20052;-77
2022/01/24 13:04:31;;;;;;;5.50;2.97;;;;;;;4.97;100.00;103148.34;6247517;28;20072;-77
2022/01/24 13:07:34;;;;;;;6.07;2.72;;;;;;;4.96;100.00;103143.13;6244985;28;20052;-76
2022/01/24 13:10:36;;;;;;;5.65;2.45;;;;;;;4.96;100.00;103144.00;6246828;28;20504;-76
2022/01/24 13:13:41;;;;;;;4.93;2.97;;;;;;;4.93;100.00;103137.88;6247658;28;20045;-78
2022/01/24 13:20:52;;;;;;;7.15;3.13;;;;;;;4.95;100.00;103124.03;6245194;28;20500;-76
2022/01/24 13:23:57;;;;;;;4.30;2.55;;;;;;;4.93;100.00;103128.34;6246916;28;20042;-77
2022/01/24 13:27:05;;;;;;;3.88;2.17;;;;;;;4.93;100.00;103122.25;6247264;28;20501;-78
2022/01/24 13:30:10;;;;;;;3.95;2.50;;;;;;;4.93;100.00;103125.72;6247477;28;20103;-79
2022/01/24 13:33:14;;;;;;;7.82;3.70;;;;;;;4.92;100.00;103128.34;6242947;28;20509;-76
2022/01/24 13:36:16;;;;;;;4.90;2.53;;;;;;;4.96;100.00;103125.78;6245777;28;20064;-76
2022/01/24 13:39:19;;;;;;;4.85;2.65;;;;;;;4.93;100.00;103117.91;6246819;28;20049;-76
2022/01/24 13:42:20;;;;;;;6.53;2.90;;;;;;;4.92;100.00;103123.13;6246987;28;20054;-76
2022/01/24 13:45:22;;;;;;;5.30;2.90;;;;;;;4.92;100.00;103115.31;6246770;28;20049;-77
2022/01/24 13:48:24;;;;;;;6.57;2.55;;;;;;;4.95;100.00;103120.53;6247128;28;20056;-77
2022/01/24 13:51:33;;;;;;;5.22;2.65;;;;;;;4.92;100.00;103120.53;6247037;28;20057;-77
2022/01/24 13:54:37;;;;;;;4.43;2.33;;;;;;;4.90;100.00;103120.47;6246522;28;20041;-76
2022/01/24 13:57:45;;;;;;;4.85;2.55;;;;;;;4.89;100.00;103118.75;6247084;28;20288;-77
2022/01/24 14:00:56;;;;;;;4.03;2.88;;;;;;;4.92;100.00;103124.00;6246319;28;20053;-76
2022/01/24 14:03:59;;;;;;;4.40;2.60;;;;;;;4.88;100.00;103116.13;6246584;28;20041;-76
2022/01/24 14:07:02;;;;;;;5.90;2.60;;;;;;;4.84;100.00;103115.22;6246892;28;20057;-76
2022/01/24 14:10:09;;;;;;;4.72;2.22;;;;;;;4.82;100.00;103119.56;6246456;28;20049;-77
2022/01/24 14:13:11;;;;;;;5.10;2.70;;;;;;;4.79;100.00;103120.41;6246956;28;20053;-77
2022/01/24 14:16:33;;;;;;;4.18;2.33;;;;;;;4.78;100.00;103112.59;6246742;28;20052;-79
2022/01/24 14:19:36;;;;;;;4.07;2.28;;;;;;;4.77;100.00;103113.44;6230952;28;20092;-78
2022/01/24 14:22:41;;;;;;;6.78;2.78;;;;;;;4.79;100.00;103111.72;6222413;28;20456;-78
2022/01/24 14:25:43;;;;;;;3.95;2.35;;;;;;;4.80;100.00;103111.72;6247047;28;20049;-78
2022/01/24 14:28:45;;;;;;;3.70;2.00;;;;;;;4.79;100.00;103119.53;6246682;28;20057;-78
2022/01/24 14:31:52;;;;;;;4.63;2.20;;;;;;;4.78;100.00;103110.84;6246281;28;20497;-77
2022/01/24 14:35:04;;;;;;;5.25;2.45;;;;;;;4.74;100.00;103123.84;6246792;28;20042;-77
2022/01/24 14:38:06;;;;;;;4.30;2.60;;;;;;;4.68;100.00;103119.44;6246464;28;20460;-79
2022/01/24 14:41:11;;;;;;;3.72;2.47;;;;;;;4.68;100.00;103123.75;6247404;28;20049;-80
2022/01/24 14:47:34;;;;;;;3.92;2.70;;;;;;;4.60;100.00;103113.28;6250993;28;20057;-77
2022/01/24 14:50:36;;;;;;;6.43;2.70;;;;;;;4.61;100.00;103117.63;6250612;28;20496;-75
2022/01/24 14:53:37;;;;;;;3.50;1.95;;;;;;;4.58;100.00;103121.06;6250317;28;20452;-76
2022/01/24 14:56:43;;;;;;;5.22;2.88;;;;;;;4.61;100.00;103117.63;6250284;28;20053;-77
2022/01/24 14:59:45;;;;;;;5.72;2.85;;;;;;;4.65;100.00;103123.75;6250912;28;20052;-77
2022/01/24 15:02:46;;;;;;;5.45;2.60;;;;;;;4.65;100.00;103118.53;6250783;28;20431;-77
2022/01/24 15:05:48;;;;;;;6.70;2.95;;;;;;;4.66;100.00;103122.88;6247686;28;20049;-76
2022/01/24 15:08:50;;;;;;;3.78;2.10;;;;;;;4.68;100.00;103124.66;6237390;28;20042;-76
2022/01/24 15:11:55;;;;;;;5.47;3.00;;;;;;;4.66;100.00;103128.97;6245473;28;20056;-76
2022/01/24 15:15:00;;;;;;;5.72;2.63;;;;;;;4.67;100.00;103135.91;6250472;28;20049;-76
2022/01/24 15:25:19;;;;;;;5.38;3.13;;;;;;;4.61;100.00;103137.59;6249745;28;20058;-75
2022/01/24 15:28:17;;;;;;;7.28;3.50;;;;;;;4.56;100.00;103132.34;6246441;28;20045;-78
2022/01/24 15:31:19;;;;;;;6.93;2.80;;;;;;;4.48;100.00;103134.84;6249894;28;20183;-78
2022/01/24 15:34:22;;;;;;;7.45;2.92;;;;;;;4.46;100.00;103138.31;6249776;28;20053;-79
2022/01/24 15:37:23;;;;;;;5.65;3.00;;;;;;;4.50;100.00;103134.91;6242461;28;20424;-77
2022/01/24 15:40:25;;;;;;;3.75;2.60;;;;;;;4.51;100.00;103147.03;6249390;28;20056;-77